TimeMDT,TemperatureF,Dew PointF,Humidity,Sea Level PressureIn,VisibilityMPH,Wind Direction,Wind SpeedMPH,Gust SpeedMPH,PrecipitationIn,Events,Conditions,WindDirDegrees,DateUTC
12:53 AM,39.9,37.9,93,29.97,10.0,Calm,Calm,-,N/A,,Clear,0,2013-10-10 06:53:00
1:53 AM,37.9,36.0,93,29.98,10.0,WSW,6.9,-,N/A,,Clear,250,2013-10-10 07:53:00
2:53 AM,37.9,36.0,93,29.95,10.0,WSW,3.5,-,N/A,,Clear,240,2013-10-10 08:53:00
3:53 AM,37.0,36.0,96,29.94,10.0,SW,3.5,-,N/A,,Clear,220,2013-10-10 09:53:00
4:53 AM,36.0,35.1,97,29.92,10.0,WSW,3.5,-,N/A,,Clear,240,2013-10-10 10:53:00
5:53 AM,35.1,34.0,96,29.92,10.0,SSW,3.5,-,N/A,,Unknown,210,2013-10-10 11:53:00
6:53 AM,35.1,34.0,96,29.91,10.0,SSW,3.5,-,N/A,,Clear,200,2013-10-10 12:53:00
7:53 AM,37.0,35.1,93,29.89,10.0,Calm,Calm,-,N/A,,Clear,0,2013-10-10 13:53:00
8:53 AM,42.1,37.9,85,29.88,10.0,Calm,Calm,-,N/A,,Clear,0,2013-10-10 14:53:00
9:53 AM,46.9,39.0,74,29.84,10.0,Calm,Calm,-,N/A,,Clear,0,2013-10-10 15:53:00
10:53 AM,50.0,39.0,66,29.84,10.0,Calm,Calm,-,N/A,,Clear,0,2013-10-10 16:53:00
11:53 AM,54.0,43.0,66,29.79,10.0,North,4.6,-,N/A,,Clear,360,2013-10-10 17:53:00
12:07 PM,55.4,44.6,67,29.75,2.5,NNE,5.8,-,N/A,,Haze,20,2013-10-10 18:07:00
12:16 PM,55.4,44.6,67,29.74,10.0,North,5.8,-,N/A,,Clear,360,2013-10-10 18:16:00
12:53 PM,57.0,46.0,67,29.74,10.0,NNE,4.6,-,N/A,,Clear,30,2013-10-10 18:53:00
1:53 PM,62.1,48.9,62,29.68,10.0,NE,5.8,-,N/A,,Clear,40,2013-10-10 19:53:00
2:53 PM,61.0,50.0,67,29.65,10.0,NE,9.2,-,N/A,,Clear,40,2013-10-10 20:53:00
3:53 PM,61.0,51.1,70,29.64,10.0,NNE,9.2,-,N/A,,Clear,30,2013-10-10 21:53:00
4:53 PM,57.9,48.9,72,29.66,10.0,NNE,9.2,-,N/A,,Clear,30,2013-10-10 22:53:00
5:53 PM,55.0,48.0,77,29.63,10.0,North,9.2,-,N/A,,Scattered Clouds,360,2013-10-10 23:53:00
6:01 PM,55.4,48.2,77,29.60,10.0,North,9.2,-,N/A,Thunderstorm,Partly Cloudy,10,2013-10-11 00:01:00
6:50 PM,53.6,48.2,82,29.59,8.0,NNE,11.5,-,0.00,Rain,Light Rain,30,2013-10-11 00:50:00
6:53 PM,53.1,48.0,83,29.63,9.0,NNE,11.5,-,0.00,Rain-Thunderstorm,Light Rain,30,2013-10-11 00:53:00
7:22 PM,51.8,50.0,94,29.61,3.0,ENE,11.5,-,0.07,Rain,Heavy Rain,60,2013-10-11 01:22:00
7:53 PM,51.1,50.0,96,29.58,10.0,NW,9.2,21.9,0.09,,Partly Cloudy,310,2013-10-11 01:53:00
8:53 PM,51.1,50.0,96,29.57,10.0,NNE,9.2,-,N/A,,Clear,30,2013-10-11 02:53:00
9:53 PM,51.1,51.1,100,29.55,10.0,NNE,8.1,-,N/A,,Mostly Cloudy,20,2013-10-11 03:53:00
10:20 PM,51.8,50.0,94,29.50,8.0,NNE,8.1,-,0.00,Rain,Light Rain,30,2013-10-11 04:20:00
10:32 PM,51.8,50.0,94,29.48,7.0,NNE,10.4,-,0.00,,Overcast,30,2013-10-11 04:32:00
10:53 PM,51.1,51.1,100,29.47,7.0,NE,9.2,-,0.00,,Overcast,40,2013-10-11 04:53:00
11:18 PM,51.8,51.8,100,29.44,8.0,NE,6.9,-,0.01,Rain,Light Rain,40,2013-10-11 05:18:00
11:53 PM,52.0,51.1,97,29.38,10.0,NNE,13.8,-,0.01,,Overcast,30,2013-10-11 05:53:00